sensor_id;sensor_type;location;lat;lon;timestamp;P1;durP1;ratioP1;P2;durP2;ratioP2
40807;SDS011;26523;52.504;13.498;2023-08-31T00:02:21;7.13;;;2.70;;
40807;SDS011;26523;52.504;13.498;2023-08-31T00:04:47;4.72;;;2.72;;
40807;SDS011;26523;52.504;13.498;2023-08-31T00:07:15;3.85;;;2.47;;
40807;SDS011;26523;52.504;13.498;2023-08-31T00:09:41;4.22;;;2.25;;
40807;SDS011;26523;52.504;13.498;2023-08-31T00:12:07;5.32;;;2.80;;
40807;SDS011;26523;52.504;13.498;2023-08-31T00:14:33;5.90;;;2.50;;
40807;SDS011;26523;52.504;13.498;2023-08-31T00:16:59;5.25;;;2.38;;
40807;SDS011;26523;52.504;13.498;2023-08-31T00:19:24;9.30;;;2.72;;
40807;SDS011;26523;52.504;13.498;2023-08-31T00:21:50;4.28;;;2.70;;
40807;SDS011;26523;52.504;13.498;2023-08-31T00:24:17;4.75;;;3.10;;
40807;SDS011;26523;52.504;13.498;2023-08-31T00:26:47;3.78;;;2.45;;
40807;SDS011;26523;52.504;13.498;2023-08-31T00:29:16;3.45;;;2.25;;
40807;SDS011;26523;52.504;13.498;2023-08-31T00:31:43;4.68;;;2.50;;
40807;SDS011;26523;52.504;13.498;2023-08-31T00:34:09;5.95;;;2.70;;
40807;SDS011;26523;52.504;13.498;2023-08-31T00:36:36;7.55;;;2.83;;
40807;SDS011;26523;52.504;13.498;2023-08-31T00:39:03;5.43;;;2.53;;
40807;SDS011;26523;52.504;13.498;2023-08-31T00:41:36;6.68;;;2.67;;
40807;SDS011;26523;52.504;13.498;2023-08-31T00:44:01;3.80;;;2.42;;
40807;SDS011;26523;52.504;13.498;2023-08-31T00:46:30;3.63;;;2.22;;
40807;SDS011;26523;52.504;13.498;2023-08-31T00:48:59;4.82;;;2.50;;
40807;SDS011;26523;52.504;13.498;2023-08-31T00:51:29;9.65;;;2.90;;
40807;SDS011;26523;52.504;13.498;2023-08-31T00:53:54;6.57;;;2.78;;
40807;SDS011;26523;52.504;13.498;2023-08-31T00:56:22;5.30;;;2.50;;
40807;SDS011;26523;52.504;13.498;2023-08-31T00:59:02;4.22;;;2.25;;
40807;SDS011;26523;52.504;13.498;2023-08-31T01:04:16;5.05;;;2.80;;
40807;SDS011;26523;52.504;13.498;2023-08-31T01:07:04;4.93;;;2.77;;
40807;SDS011;26523;52.504;13.498;2023-08-31T01:09:46;4.32;;;2.40;;
40807;SDS011;26523;52.504;13.498;2023-08-31T01:12:35;5.60;;;3.03;;
40807;SDS011;26523;52.504;13.498;2023-08-31T01:15:10;5.88;;;2.80;;
40807;SDS011;26523;52.504;13.498;2023-08-31T01:17:39;4.00;;;2.80;;
40807;SDS011;26523;52.504;13.498;2023-08-31T01:20:07;8.00;;;3.20;;
40807;SDS011;26523;52.504;13.498;2023-08-31T01:22:43;6.15;;;3.03;;
40807;SDS011;26523;52.504;13.498;2023-08-31T01:25:17;7.00;;;2.78;;
40807;SDS011;26523;52.504;13.498;2023-08-31T01:27:43;4.97;;;2.78;;
40807;SDS011;26523;52.504;13.498;2023-08-31T01:30:09;6.07;;;2.42;;
40807;SDS011;26523;52.504;13.498;2023-08-31T01:32:36;4.03;;;2.83;;
40807;SDS011;26523;52.504;13.498;2023-08-31T01:35:10;4.45;;;2.70;;
40807;SDS011;26523;52.504;13.498;2023-08-31T01:40:15;5.57;;;2.50;;
40807;SDS011;26523;52.504;13.498;2023-08-31T01:42:45;4.07;;;2.25;;
40807;SDS011;26523;52.504;13.498;2023-08-31T01:45:13;3.97;;;2.25;;
40807;SDS011;26523;52.504;13.498;2023-08-31T01:47:42;4.18;;;2.40;;
40807;SDS011;26523;52.504;13.498;2023-08-31T01:50:08;4.22;;;2.63;;
40807;SDS011;26523;52.504;13.498;2023-08-31T01:52:36;4.57;;;2.13;;
40807;SDS011;26523;52.504;13.498;2023-08-31T01:55:03;6.65;;;2.53;;
40807;SDS011;26523;52.504;13.498;2023-08-31T01:57:30;4.18;;;2.60;;
40807;SDS011;26523;52.504;13.498;2023-08-31T01:59:57;4.90;;;2.22;;
40807;SDS011;26523;52.504;13.498;2023-08-31T02:02:23;3.28;;;2.10;;
40807;SDS011;26523;52.504;13.498;2023-08-31T02:04:48;5.25;;;2.20;;
40807;SDS011;26523;52.504;13.498;2023-08-31T02:07:18;5.35;;;2.33;;
40807;SDS011;26523;52.504;13.498;2023-08-31T02:09:44;3.25;;;1.70;;
40807;SDS011;26523;52.504;13.498;2023-08-31T02:12:10;4.05;;;2.05;;
40807;SDS011;26523;52.504;13.498;2023-08-31T02:14:35;3.58;;;1.95;;
40807;SDS011;26523;52.504;13.498;2023-08-31T02:17:01;4.35;;;1.95;;
40807;SDS011;26523;52.504;13.498;2023-08-31T02:19:29;6.43;;;2.10;;
40807;SDS011;26523;52.504;13.498;2023-08-31T02:21:54;3.97;;;2.15;;
40807;SDS011;26523;52.504;13.498;2023-08-31T02:24:21;3.92;;;1.85;;
40807;SDS011;26523;52.504;13.498;2023-08-31T02:26:48;3.65;;;2.10;;
40807;SDS011;26523;52.504;13.498;2023-08-31T02:29:14;4.03;;;1.92;;
40807;SDS011;26523;52.504;13.498;2023-08-31T02:31:39;2.85;;;1.38;;
40807;SDS011;26523;52.504;13.498;2023-08-31T02:34:08;2.40;;;1.33;;
40807;SDS011;26523;52.504;13.498;2023-08-31T02:36:33;2.58;;;1.30;;
40807;SDS011;26523;52.504;13.498;2023-08-31T02:38:59;2.33;;;1.30;;
40807;SDS011;26523;52.504;13.498;2023-08-31T02:41:25;2.70;;;1.13;;
40807;SDS011;26523;52.504;13.498;2023-08-31T02:43:51;2.72;;;1.25;;
40807;SDS011;26523;52.504;13.498;2023-08-31T02:46:17;3.00;;;1.50;;
40807;SDS011;26523;52.504;13.498;2023-08-31T02:48:44;3.72;;;1.48;;
40807;SDS011;26523;52.504;13.498;2023-08-31T02:51:10;3.42;;;1.60;;
40807;SDS011;26523;52.504;13.498;2023-08-31T02:53:35;3.13;;;1.52;;
40807;SDS011;26523;52.504;13.498;2023-08-31T02:56:02;2.63;;;1.40;;
40807;SDS011;26523;52.504;13.498;2023-08-31T02:58:27;3.97;;;1.52;;
40807;SDS011;26523;52.504;13.498;2023-08-31T03:00:53;2.55;;;1.40;;
40807;SDS011;26523;52.504;13.498;2023-08-31T03:03:22;2.97;;;1.50;;
40807;SDS011;26523;52.504;13.498;2023-08-31T03:05:48;2.78;;;1.58;;
40807;SDS011;26523;52.504;13.498;2023-08-31T03:08:13;3.65;;;1.58;;
40807;SDS011;26523;52.504;13.498;2023-08-31T03:10:39;4.00;;;2.10;;
40807;SDS011;26523;52.504;13.498;2023-08-31T03:13:05;2.35;;;1.42;;
40807;SDS011;26523;52.504;13.498;2023-08-31T03:15:35;3.03;;;1.67;;
40807;SDS011;26523;52.504;13.498;2023-08-31T03:18:01;3.72;;;1.90;;
40807;SDS011;26523;52.504;13.498;2023-08-31T03:20:27;5.18;;;2.30;;
40807;SDS011;26523;52.504;13.498;2023-08-31T03:22:53;4.63;;;1.83;;
40807;SDS011;26523;52.504;13.498;2023-08-31T03:25:19;2.95;;;1.58;;
40807;SDS011;26523;52.504;13.498;2023-08-31T03:27:47;2.97;;;1.67;;
40807;SDS011;26523;52.504;13.498;2023-08-31T03:30:12;7.68;;;2.30;;
40807;SDS011;26523;52.504;13.498;2023-08-31T03:32:38;2.72;;;1.60;;
40807;SDS011;26523;52.504;13.498;2023-08-31T03:35:04;3.55;;;1.48;;
40807;SDS011;26523;52.504;13.498;2023-08-31T03:37:30;4.22;;;1.83;;
40807;SDS011;26523;52.504;13.498;2023-08-31T03:39:56;4.45;;;1.70;;
40807;SDS011;26523;52.504;13.498;2023-08-31T03:42:23;3.50;;;1.70;;
40807;SDS011;26523;52.504;13.498;2023-08-31T03:44:49;3.20;;;1.67;;
40807;SDS011;26523;52.504;13.498;2023-08-31T03:47:15;3.28;;;1.88;;
40807;SDS011;26523;52.504;13.498;2023-08-31T03:49:41;5.13;;;2.17;;
40807;SDS011;26523;52.504;13.498;2023-08-31T03:52:07;4.60;;;1.40;;
40807;SDS011;26523;52.504;13.498;2023-08-31T03:54:32;2.95;;;1.52;;
40807;SDS011;26523;52.504;13.498;2023-08-31T03:56:58;2.95;;;1.60;;
40807;SDS011;26523;52.504;13.498;2023-08-31T03:59:23;2.97;;;1.38;;
40807;SDS011;26523;52.504;13.498;2023-08-31T04:01:50;4.10;;;1.88;;
40807;SDS011;26523;52.504;13.498;2023-08-31T04:04:15;2.38;;;1.52;;
40807;SDS011;26523;52.504;13.498;2023-08-31T04:06:42;3.05;;;1.63;;
40807;SDS011;26523;52.504;13.498;2023-08-31T04:09:09;2.60;;;1.60;;
40807;SDS011;26523;52.504;13.498;2023-08-31T04:11:37;3.38;;;1.80;;
40807;SDS011;26523;52.504;13.498;2023-08-31T04:14:03;5.75;;;2.33;;
40807;SDS011;26523;52.504;13.498;2023-08-31T04:16:30;5.03;;;2.38;;
40807;SDS011;26523;52.504;13.498;2023-08-31T04:18:57;4.32;;;1.98;;
40807;SDS011;26523;52.504;13.498;2023-08-31T04:21:22;7.10;;;2.58;;
40807;SDS011;26523;52.504;13.498;2023-08-31T04:23:48;9.48;;;4.18;;
40807;SDS011;26523;52.504;13.498;2023-08-31T04:26:14;6.78;;;2.97;;
40807;SDS011;26523;52.504;13.498;2023-08-31T04:28:43;5.88;;;2.83;;
40807;SDS011;26523;52.504;13.498;2023-08-31T04:31:09;5.13;;;2.70;;
40807;SDS011;26523;52.504;13.498;2023-08-31T04:33:35;5.38;;;2.78;;
40807;SDS011;26523;52.504;13.498;2023-08-31T04:36:02;6.13;;;3.30;;
40807;SDS011;26523;52.504;13.498;2023-08-31T04:38:37;7.47;;;2.97;;
40807;SDS011;26523;52.504;13.498;2023-08-31T04:41:09;5.13;;;2.80;;
40807;SDS011;26523;52.504;13.498;2023-08-31T04:43:38;6.95;;;3.58;;
40807;SDS011;26523;52.504;13.498;2023-08-31T04:46:05;6.07;;;3.42;;
40807;SDS011;26523;52.504;13.498;2023-08-31T04:48:31;8.23;;;3.80;;
40807;SDS011;26523;52.504;13.498;2023-08-31T04:51:00;6.15;;;3.20;;
40807;SDS011;26523;52.504;13.498;2023-08-31T04:53:29;9.48;;;3.97;;
40807;SDS011;26523;52.504;13.498;2023-08-31T04:55:55;8.80;;;3.75;;
40807;SDS011;26523;52.504;13.498;2023-08-31T04:58:21;9.10;;;4.10;;
40807;SDS011;26523;52.504;13.498;2023-08-31T05:00:46;9.10;;;3.97;;
40807;SDS011;26523;52.504;13.498;2023-08-31T05:03:12;11.27;;;4.85;;
40807;SDS011;26523;52.504;13.498;2023-08-31T05:05:38;7.25;;;4.30;;
40807;SDS011;26523;52.504;13.498;2023-08-31T05:08:04;8.23;;;3.90;;
40807;SDS011;26523;52.504;13.498;2023-08-31T05:10:30;10.73;;;4.25;;
40807;SDS011;26523;52.504;13.498;2023-08-31T05:12:55;7.60;;;4.43;;
40807;SDS011;26523;52.504;13.498;2023-08-31T05:15:22;8.95;;;4.72;;
40807;SDS011;26523;52.504;13.498;2023-08-31T05:17:48;8.52;;;4.65;;
40807;SDS011;26523;52.504;13.498;2023-08-31T05:20:13;8.45;;;4.03;;
40807;SDS011;26523;52.504;13.498;2023-08-31T05:22:39;7.85;;;4.03;;
40807;SDS011;26523;52.504;13.498;2023-08-31T05:25:05;8.95;;;4.75;;
40807;SDS011;26523;52.504;13.498;2023-08-31T05:27:31;9.90;;;4.82;;
40807;SDS011;26523;52.504;13.498;2023-08-31T05:29:58;8.13;;;4.57;;
40807;SDS011;26523;52.504;13.498;2023-08-31T05:32:23;9.73;;;4.88;;
40807;SDS011;26523;52.504;13.498;2023-08-31T05:34:49;8.88;;;4.68;;
40807;SDS011;26523;52.504;13.498;2023-08-31T05:37:14;9.85;;;4.70;;
40807;SDS011;26523;52.504;13.498;2023-08-31T05:39:41;7.93;;;4.35;;
40807;SDS011;26523;52.504;13.498;2023-08-31T05:42:06;11.25;;;4.40;;
40807;SDS011;26523;52.504;13.498;2023-08-31T05:44:32;8.25;;;4.30;;
40807;SDS011;26523;52.504;13.498;2023-08-31T05:46:58;10.02;;;4.95;;
40807;SDS011;26523;52.504;13.498;2023-08-31T05:49:25;10.73;;;4.43;;
40807;SDS011;26523;52.504;13.498;2023-08-31T05:51:51;9.27;;;5.00;;
40807;SDS011;26523;52.504;13.498;2023-08-31T05:54:17;8.55;;;4.78;;
40807;SDS011;26523;52.504;13.498;2023-08-31T05:56:42;8.00;;;5.00;;
40807;SDS011;26523;52.504;13.498;2023-08-31T05:59:09;9.90;;;4.80;;
40807;SDS011;26523;52.504;13.498;2023-08-31T06:01:35;12.57;;;3.95;;
40807;SDS011;26523;52.504;13.498;2023-08-31T06:04:04;11.18;;;4.50;;
40807;SDS011;26523;52.504;13.498;2023-08-31T06:06:30;14.98;;;4.20;;
40807;SDS011;26523;52.504;13.498;2023-08-31T06:08:57;8.32;;;4.28;;
40807;SDS011;26523;52.504;13.498;2023-08-31T06:11:23;12.00;;;4.45;;
40807;SDS011;26523;52.504;13.498;2023-08-31T06:13:48;9.18;;;4.63;;
40807;SDS011;26523;52.504;13.498;2023-08-31T06:16:14;10.05;;;4.15;;
40807;SDS011;26523;52.504;13.498;2023-08-31T06:18:40;7.50;;;4.18;;
40807;SDS011;26523;52.504;13.498;2023-08-31T06:21:05;13.73;;;4.60;;
40807;SDS011;26523;52.504;13.498;2023-08-31T06:23:31;8.13;;;4.75;;
40807;SDS011;26523;52.504;13.498;2023-08-31T06:25:57;13.45;;;4.65;;
40807;SDS011;26523;52.504;13.498;2023-08-31T06:28:22;9.93;;;4.53;;
40807;SDS011;26523;52.504;13.498;2023-08-31T06:30:48;12.20;;;5.07;;
40807;SDS011;26523;52.504;13.498;2023-08-31T06:33:14;9.32;;;4.15;;
40807;SDS011;26523;52.504;13.498;2023-08-31T06:35:40;8.25;;;5.10;;
40807;SDS011;26523;52.504;13.498;2023-08-31T06:38:06;11.50;;;5.03;;
40807;SDS011;26523;52.504;13.498;2023-08-31T06:40:32;7.93;;;3.75;;
40807;SDS011;26523;52.504;13.498;2023-08-31T06:43:01;7.25;;;3.65;;
40807;SDS011;26523;52.504;13.498;2023-08-31T06:45:28;6.55;;;3.70;;
40807;SDS011;26523;52.504;13.498;2023-08-31T06:47:54;7.93;;;4.05;;
40807;SDS011;26523;52.504;13.498;2023-08-31T06:50:19;9.95;;;3.83;;
40807;SDS011;26523;52.504;13.498;2023-08-31T06:52:45;7.57;;;4.30;;
40807;SDS011;26523;52.504;13.498;2023-08-31T06:55:11;11.05;;;4.18;;
40807;SDS011;26523;52.504;13.498;2023-08-31T06:57:37;9.55;;;3.55;;
40807;SDS011;26523;52.504;13.498;2023-08-31T07:00:03;7.65;;;3.58;;
40807;SDS011;26523;52.504;13.498;2023-08-31T07:02:31;12.73;;;4.07;;
40807;SDS011;26523;52.504;13.498;2023-08-31T07:04:57;10.07;;;3.45;;
40807;SDS011;26523;52.504;13.498;2023-08-31T07:07:24;6.80;;;3.55;;
40807;SDS011;26523;52.504;13.498;2023-08-31T07:09:50;6.57;;;3.38;;
40807;SDS011;26523;52.504;13.498;2023-08-31T07:12:16;9.48;;;3.83;;
40807;SDS011;26523;52.504;13.498;2023-08-31T07:14:42;10.88;;;3.40;;
40807;SDS011;26523;52.504;13.498;2023-08-31T07:17:08;7.50;;;3.88;;
40807;SDS011;26523;52.504;13.498;2023-08-31T07:19:37;8.38;;;3.80;;
40807;SDS011;26523;52.504;13.498;2023-08-31T07:22:03;6.97;;;3.40;;
40807;SDS011;26523;52.504;13.498;2023-08-31T07:24:31;7.07;;;3.50;;
40807;SDS011;26523;52.504;13.498;2023-08-31T07:26:56;10.02;;;3.83;;
40807;SDS011;26523;52.504;13.498;2023-08-31T07:29:23;6.38;;;3.20;;
40807;SDS011;26523;52.504;13.498;2023-08-31T07:31:49;5.25;;;2.97;;
40807;SDS011;26523;52.504;13.498;2023-08-31T07:34:16;9.95;;;3.67;;
40807;SDS011;26523;52.504;13.498;2023-08-31T07:36:45;7.43;;;3.15;;
40807;SDS011;26523;52.504;13.498;2023-08-31T07:39:14;8.07;;;3.40;;
40807;SDS011;26523;52.504;13.498;2023-08-31T07:41:42;8.40;;;3.22;;
40807;SDS011;26523;52.504;13.498;2023-08-31T07:44:08;11.65;;;3.00;;
40807;SDS011;26523;52.504;13.498;2023-08-31T07:46:34;7.68;;;2.72;;
40807;SDS011;26523;52.504;13.498;2023-08-31T07:48:59;6.78;;;2.90;;
40807;SDS011;26523;52.504;13.498;2023-08-31T07:51:25;6.45;;;3.20;;
40807;SDS011;26523;52.504;13.498;2023-08-31T07:53:51;7.15;;;3.10;;
40807;SDS011;26523;52.504;13.498;2023-08-31T07:56:16;6.65;;;3.47;;
40807;SDS011;26523;52.504;13.498;2023-08-31T07:58:42;5.90;;;2.65;;
40807;SDS011;26523;52.504;13.498;2023-08-31T08:01:09;7.00;;;2.75;;
40807;SDS011;26523;52.504;13.498;2023-08-31T08:03:34;4.68;;;2.28;;
40807;SDS011;26523;52.504;13.498;2023-08-31T08:06:00;6.22;;;2.20;;
40807;SDS011;26523;52.504;13.498;2023-08-31T08:08:26;7.35;;;3.15;;
40807;SDS011;26523;52.504;13.498;2023-08-31T08:10:53;5.03;;;2.30;;
40807;SDS011;26523;52.504;13.498;2023-08-31T08:13:19;4.72;;;1.90;;
40807;SDS011;26523;52.504;13.498;2023-08-31T08:15:45;4.78;;;2.03;;
40807;SDS011;26523;52.504;13.498;2023-08-31T08:18:11;4.82;;;1.83;;
40807;SDS011;26523;52.504;13.498;2023-08-31T08:20:36;5.53;;;1.90;;
40807;SDS011;26523;52.504;13.498;2023-08-31T08:23:02;3.70;;;1.85;;
40807;SDS011;26523;52.504;13.498;2023-08-31T08:25:28;4.68;;;1.67;;
40807;SDS011;26523;52.504;13.498;2023-08-31T08:27:54;6.35;;;1.92;;
40807;SDS011;26523;52.504;13.498;2023-08-31T08:30:22;8.82;;;1.50;;
40807;SDS011;26523;52.504;13.498;2023-08-31T08:32:49;5.55;;;1.55;;
40807;SDS011;26523;52.504;13.498;2023-08-31T08:35:15;5.57;;;1.75;;
40807;SDS011;26523;52.504;13.498;2023-08-31T08:37:43;2.60;;;1.40;;
40807;SDS011;26523;52.504;13.498;2023-08-31T08:40:09;6.30;;;1.85;;
40807;SDS011;26523;52.504;13.498;2023-08-31T08:42:38;3.58;;;1.30;;
40807;SDS011;26523;52.504;13.498;2023-08-31T08:45:06;2.72;;;1.42;;
40807;SDS011;26523;52.504;13.498;2023-08-31T08:47:37;5.65;;;1.50;;
40807;SDS011;26523;52.504;13.498;2023-08-31T08:50:05;3.80;;;1.30;;
40807;SDS011;26523;52.504;13.498;2023-08-31T08:52:32;3.42;;;1.60;;
40807;SDS011;26523;52.504;13.498;2023-08-31T08:54:58;4.30;;;1.10;;
40807;SDS011;26523;52.504;13.498;2023-08-31T08:57:27;3.67;;;2.10;;
40807;SDS011;26523;52.504;13.498;2023-08-31T08:59:53;4.57;;;1.50;;
40807;SDS011;26523;52.504;13.498;2023-08-31T09:02:20;5.57;;;1.65;;
40807;SDS011;26523;52.504;13.498;2023-08-31T09:04:45;5.93;;;1.23;;
40807;SDS011;26523;52.504;13.498;2023-08-31T09:07:13;4.05;;;1.20;;
40807;SDS011;26523;52.504;13.498;2023-08-31T09:09:49;2.50;;;0.93;;
40807;SDS011;26523;52.504;13.498;2023-08-31T09:12:16;5.05;;;1.25;;
40807;SDS011;26523;52.504;13.498;2023-08-31T09:15:03;2.63;;;1.30;;
40807;SDS011;26523;52.504;13.498;2023-08-31T09:17:41;1.65;;;0.90;;
40807;SDS011;26523;52.504;13.498;2023-08-31T09:20:14;2.25;;;0.95;;
40807;SDS011;26523;52.504;13.498;2023-08-31T09:22:43;1.60;;;0.90;;
40807;SDS011;26523;52.504;13.498;2023-08-31T09:25:09;10.10;;;1.65;;
40807;SDS011;26523;52.504;13.498;2023-08-31T09:27:39;3.17;;;1.23;;
40807;SDS011;26523;52.504;13.498;2023-08-31T09:30:08;7.43;;;1.70;;
40807;SDS011;26523;52.504;13.498;2023-08-31T09:32:35;5.40;;;1.58;;
40807;SDS011;26523;52.504;13.498;2023-08-31T09:35:03;4.78;;;1.30;;
40807;SDS011;26523;52.504;13.498;2023-08-31T09:37:34;3.85;;;1.15;;
40807;SDS011;26523;52.504;13.498;2023-08-31T09:40:03;3.25;;;1.40;;
40807;SDS011;26523;52.504;13.498;2023-08-31T09:42:38;3.70;;;1.50;;
40807;SDS011;26523;52.504;13.498;2023-08-31T09:45:04;6.20;;;1.48;;
40807;SDS011;26523;52.504;13.498;2023-08-31T09:47:30;0.90;;;0.60;;
40807;SDS011;26523;52.504;13.498;2023-08-31T09:49:56;5.30;;;1.42;;
40807;SDS011;26523;52.504;13.498;2023-08-31T09:52:23;2.63;;;0.98;;
40807;SDS011;26523;52.504;13.498;2023-08-31T09:54:50;4.30;;;1.20;;
40807;SDS011;26523;52.504;13.498;2023-08-31T09:57:18;6.22;;;1.10;;
40807;SDS011;26523;52.504;13.498;2023-08-31T09:59:45;3.58;;;1.00;;
40807;SDS011;26523;52.504;13.498;2023-08-31T10:02:11;4.50;;;1.52;;
40807;SDS011;26523;52.504;13.498;2023-08-31T10:04:40;2.17;;;1.00;;
40807;SDS011;26523;52.504;13.498;2023-08-31T10:07:07;2.17;;;1.23;;
40807;SDS011;26523;52.504;13.498;2023-08-31T10:09:36;5.28;;;1.50;;
40807;SDS011;26523;52.504;13.498;2023-08-31T10:12:05;6.82;;;1.52;;
40807;SDS011;26523;52.504;13.498;2023-08-31T10:14:33;2.25;;;0.93;;
40807;SDS011;26523;52.504;13.498;2023-08-31T10:16:59;3.08;;;1.15;;
40807;SDS011;26523;52.504;13.498;2023-08-31T10:19:25;1.70;;;0.88;;
40807;SDS011;26523;52.504;13.498;2023-08-31T10:21:51;2.88;;;1.13;;
40807;SDS011;26523;52.504;13.498;2023-08-31T10:24:17;7.82;;;1.63;;
40807;SDS011;26523;52.504;13.498;2023-08-31T10:26:42;3.42;;;1.13;;
40807;SDS011;26523;52.504;13.498;2023-08-31T10:29:24;3.50;;;1.00;;
40807;SDS011;26523;52.504;13.498;2023-08-31T10:31:55;4.88;;;1.38;;
40807;SDS011;26523;52.504;13.498;2023-08-31T10:34:36;6.65;;;1.50;;
40807;SDS011;26523;52.504;13.498;2023-08-31T10:37:19;7.43;;;1.33;;
40807;SDS011;26523;52.504;13.498;2023-08-31T10:39:46;4.38;;;1.40;;
40807;SDS011;26523;52.504;13.498;2023-08-31T10:42:13;7.78;;;1.80;;
40807;SDS011;26523;52.504;13.498;2023-08-31T10:44:41;3.50;;;1.00;;
40807;SDS011;26523;52.504;13.498;2023-08-31T10:47:07;5.53;;;1.40;;
40807;SDS011;26523;52.504;13.498;2023-08-31T10:49:33;17.90;;;2.20;;
40807;SDS011;26523;52.504;13.498;2023-08-31T10:52:18;10.90;;;1.92;;
40807;SDS011;26523;52.504;13.498;2023-08-31T10:54:45;14.10;;;1.83;;
40807;SDS011;26523;52.504;13.498;2023-08-31T10:57:12;9.13;;;1.63;;
40807;SDS011;26523;52.504;13.498;2023-08-31T11:02:06;3.75;;;1.40;;
40807;SDS011;26523;52.504;13.498;2023-08-31T11:04:38;4.20;;;1.52;;
40807;SDS011;26523;52.504;13.498;2023-08-31T11:07:19;6.68;;;1.88;;
40807;SDS011;26523;52.504;13.498;2023-08-31T11:09:48;3.42;;;1.30;;
40807;SDS011;26523;52.504;13.498;2023-08-31T11:12:13;4.72;;;1.40;;
40807;SDS011;26523;52.504;13.498;2023-08-31T11:14:41;5.07;;;1.20;;
40807;SDS011;26523;52.504;13.498;2023-08-31T11:17:07;2.92;;;1.10;;
40807;SDS011;26523;52.504;13.498;2023-08-31T11:19:34;2.13;;;1.08;;
40807;SDS011;26523;52.504;13.498;2023-08-31T11:22:00;6.50;;;1.20;;
40807;SDS011;26523;52.504;13.498;2023-08-31T11:24:27;6.43;;;1.80;;
40807;SDS011;26523;52.504;13.498;2023-08-31T11:26:57;4.47;;;1.20;;
40807;SDS011;26523;52.504;13.498;2023-08-31T11:29:22;2.70;;;1.02;;
40807;SDS011;26523;52.504;13.498;2023-08-31T11:31:48;4.40;;;1.20;;
40807;SDS011;26523;52.504;13.498;2023-08-31T11:34:15;4.03;;;1.27;;
40807;SDS011;26523;52.504;13.498;2023-08-31T11:36:45;4.15;;;1.30;;
40807;SDS011;26523;52.504;13.498;2023-08-31T11:39:12;2.15;;;0.93;;
40807;SDS011;26523;52.504;13.498;2023-08-31T11:41:38;6.30;;;1.75;;
40807;SDS011;26523;52.504;13.498;2023-08-31T11:44:24;3.53;;;1.40;;
40807;SDS011;26523;52.504;13.498;2023-08-31T11:46:51;4.50;;;1.35;;
40807;SDS011;26523;52.504;13.498;2023-08-31T11:49:18;2.05;;;1.20;;
40807;SDS011;26523;52.504;13.498;2023-08-31T11:51:44;2.38;;;1.27;;
40807;SDS011;26523;52.504;13.498;2023-08-31T11:54:10;3.50;;;1.30;;
40807;SDS011;26523;52.504;13.498;2023-08-31T11:56:41;5.13;;;1.83;;
40807;SDS011;26523;52.504;13.498;2023-08-31T11:59:11;5.65;;;1.48;;
40807;SDS011;26523;52.504;13.498;2023-08-31T12:01:42;4.97;;;1.10;;
40807;SDS011;26523;52.504;13.498;2023-08-31T12:04:15;3.38;;;1.75;;
40807;SDS011;26523;52.504;13.498;2023-08-31T12:06:46;7.85;;;1.35;;
40807;SDS011;26523;52.504;13.498;2023-08-31T12:09:15;6.28;;;1.40;;
40807;SDS011;26523;52.504;13.498;2023-08-31T12:11:41;3.28;;;1.50;;
40807;SDS011;26523;52.504;13.498;2023-08-31T12:14:23;2.92;;;1.38;;
40807;SDS011;26523;52.504;13.498;2023-08-31T12:19:17;21.60;;;3.80;;
40807;SDS011;26523;52.504;13.498;2023-08-31T12:21:44;5.95;;;2.15;;
40807;SDS011;26523;52.504;13.498;2023-08-31T12:24:12;10.70;;;2.30;;
40807;SDS011;26523;52.504;13.498;2023-08-31T12:26:42;12.13;;;2.95;;
40807;SDS011;26523;52.504;13.498;2023-08-31T12:29:08;9.52;;;2.60;;
40807;SDS011;26523;52.504;13.498;2023-08-31T12:31:36;6.68;;;2.97;;
40807;SDS011;26523;52.504;13.498;2023-08-31T12:34:02;6.78;;;2.05;;
40807;SDS011;26523;52.504;13.498;2023-08-31T12:36:31;8.18;;;2.13;;
40807;SDS011;26523;52.504;13.498;2023-08-31T12:39:03;4.10;;;2.17;;
40807;SDS011;26523;52.504;13.498;2023-08-31T12:41:32;5.25;;;2.05;;
40807;SDS011;26523;52.504;13.498;2023-08-31T12:43:58;4.68;;;2.15;;
40807;SDS011;26523;52.504;13.498;2023-08-31T12:46:24;5.40;;;2.03;;
40807;SDS011;26523;52.504;13.498;2023-08-31T12:48:50;5.85;;;2.50;;
40807;SDS011;26523;52.504;13.498;2023-08-31T12:51:17;8.57;;;2.95;;
40807;SDS011;26523;52.504;13.498;2023-08-31T12:53:43;10.65;;;3.10;;
40807;SDS011;26523;52.504;13.498;2023-08-31T12:56:09;6.43;;;2.67;;
40807;SDS011;26523;52.504;13.498;2023-08-31T12:58:35;4.85;;;2.40;;
40807;SDS011;26523;52.504;13.498;2023-08-31T13:01:01;5.53;;;2.45;;
40807;SDS011;26523;52.504;13.498;2023-08-31T13:03:27;5.88;;;2.50;;
40807;SDS011;26523;52.504;13.498;2023-08-31T13:05:53;7.38;;;2.15;;
40807;SDS011;26523;52.504;13.498;2023-08-31T13:08:20;5.40;;;1.73;;
40807;SDS011;26523;52.504;13.498;2023-08-31T13:10:54;6.72;;;2.30;;
40807;SDS011;26523;52.504;13.498;2023-08-31T13:13:20;3.65;;;1.67;;
40807;SDS011;26523;52.504;13.498;2023-08-31T13:15:46;3.83;;;1.83;;
40807;SDS011;26523;52.504;13.498;2023-08-31T13:18:12;7.20;;;2.20;;
40807;SDS011;26523;52.504;13.498;2023-08-31T13:20:38;6.60;;;2.28;;
40807;SDS011;26523;52.504;13.498;2023-08-31T13:23:04;3.40;;;2.17;;
40807;SDS011;26523;52.504;13.498;2023-08-31T13:25:30;8.27;;;2.90;;
40807;SDS011;26523;52.504;13.498;2023-08-31T13:27:56;11.50;;;3.00;;
40807;SDS011;26523;52.504;13.498;2023-08-31T13:30:22;4.15;;;2.17;;
40807;SDS011;26523;52.504;13.498;2023-08-31T13:32:48;3.45;;;1.70;;
40807;SDS011;26523;52.504;13.498;2023-08-31T13:35:14;6.32;;;1.83;;
40807;SDS011;26523;52.504;13.498;2023-08-31T13:37:40;2.88;;;1.80;;
40807;SDS011;26523;52.504;13.498;2023-08-31T13:40:06;5.53;;;2.70;;
40807;SDS011;26523;52.504;13.498;2023-08-31T13:42:35;3.72;;;2.03;;
40807;SDS011;26523;52.504;13.498;2023-08-31T13:45:07;4.32;;;1.95;;
40807;SDS011;26523;52.504;13.498;2023-08-31T13:47:33;3.25;;;1.95;;
40807;SDS011;26523;52.504;13.498;2023-08-31T13:49:59;3.65;;;1.73;;
40807;SDS011;26523;52.504;13.498;2023-08-31T13:52:26;3.25;;;1.67;;
40807;SDS011;26523;52.504;13.498;2023-08-31T13:54:51;2.83;;;1.58;;
40807;SDS011;26523;52.504;13.498;2023-08-31T13:57:18;4.22;;;2.15;;
40807;SDS011;26523;52.504;13.498;2023-08-31T13:59:44;8.73;;;2.03;;
40807;SDS011;26523;52.504;13.498;2023-08-31T14:02:14;10.15;;;1.90;;
40807;SDS011;26523;52.504;13.498;2023-08-31T14:04:40;7.80;;;2.40;;
40807;SDS011;26523;52.504;13.498;2023-08-31T14:07:07;8.40;;;2.85;;
40807;SDS011;26523;52.504;13.498;2023-08-31T14:09:34;10.98;;;2.33;;
40807;SDS011;26523;52.504;13.498;2023-08-31T14:12:00;6.18;;;2.92;;
40807;SDS011;26523;52.504;13.498;2023-08-31T14:14:25;7.13;;;3.53;;
40807;SDS011;26523;52.504;13.498;2023-08-31T14:16:52;9.45;;;3.97;;
40807;SDS011;26523;52.504;13.498;2023-08-31T14:19:20;4.68;;;2.50;;
40807;SDS011;26523;52.504;13.498;2023-08-31T14:21:47;5.63;;;2.08;;
40807;SDS011;26523;52.504;13.498;2023-08-31T14:24:13;1.92;;;1.10;;
40807;SDS011;26523;52.504;13.498;2023-08-31T14:26:38;4.28;;;1.38;;
40807;SDS011;26523;52.504;13.498;2023-08-31T14:29:04;10.35;;;1.70;;
40807;SDS011;26523;52.504;13.498;2023-08-31T14:31:30;6.57;;;1.70;;
40807;SDS011;26523;52.504;13.498;2023-08-31T14:33:56;3.38;;;1.70;;
40807;SDS011;26523;52.504;13.498;2023-08-31T14:36:25;2.78;;;1.08;;
40807;SDS011;26523;52.504;13.498;2023-08-31T14:38:51;1.65;;;0.80;;
40807;SDS011;26523;52.504;13.498;2023-08-31T14:41:17;2.33;;;1.20;;
40807;SDS011;26523;52.504;13.498;2023-08-31T14:43:42;2.55;;;1.02;;
40807;SDS011;26523;52.504;13.498;2023-08-31T14:46:08;2.20;;;1.10;;